sensor_id;sensor_type;location;lat;lon;timestamp;noise_LAeq;noise_LA_min;noise_LA_max;noise_LA01;noise_LA95
45109;Laerm;30447;48.742;8.972;2022-08-21T00:00:40;38.38;33.44;42.71;;
45109;Laerm;30447;48.742;8.972;2022-08-21T00:03:09;38.59;35.04;45.80;;
45109;Laerm;30447;48.742;8.972;2022-08-21T00:05:41;38.89;33.44;43.94;;
45109;Laerm;30447;48.742;8.972;2022-08-21T00:08:08;38.35;34.31;42.16;;
45109;Laerm;30447;48.742;8.972;2022-08-21T00:10:35;37.83;33.44;46.91;;
45109;Laerm;30447;48.742;8.972;2022-08-21T00:13:04;38.60;34.69;58.00;;
45109;Laerm;30447;48.742;8.972;2022-08-21T00:15:33;39.36;34.69;45.99;;
45109;Laerm;30447;48.742;8.972;2022-08-21T00:18:01;38.84;34.69;45.27;;
45109;Laerm;30447;48.742;8.972;2022-08-21T00:20:27;38.50;34.69;44.39;;
45109;Laerm;30447;48.742;8.972;2022-08-21T00:22:54;37.96;33.44;40.98;;
45109;Laerm;30447;48.742;8.972;2022-08-21T00:25:20;41.96;34.31;52.58;;
45109;Laerm;30447;48.742;8.972;2022-08-21T00:27:48;39.16;34.31;43.68;;
45109;Laerm;30447;48.742;8.972;2022-08-21T00:30:17;38.87;34.69;46.84;;
45109;Laerm;30447;48.742;8.972;2022-08-21T00:32:44;38.58;34.31;47.88;;
45109;Laerm;30447;48.742;8.972;2022-08-21T00:35:14;38.41;34.69;41.30;;
45109;Laerm;30447;48.742;8.972;2022-08-21T00:37:41;39.33;34.69;43.94;;
45109;Laerm;30447;48.742;8.972;2022-08-21T00:40:13;38.65;34.69;42.47;;
45109;Laerm;30447;48.742;8.972;2022-08-21T00:42:39;38.42;34.31;42.59;;
45109;Laerm;30447;48.742;8.972;2022-08-21T00:45:08;38.35;34.31;45.66;;
45109;Laerm;30447;48.742;8.972;2022-08-21T00:47:35;40.05;34.31;46.76;;
45109;Laerm;30447;48.742;8.972;2022-08-21T00:50:04;39.60;33.90;47.46;;
45109;Laerm;30447;48.742;8.972;2022-08-21T00:52:33;39.97;35.66;44.69;;
45109;Laerm;30447;48.742;8.972;2022-08-21T00:55:01;38.38;34.69;41.46;;
45109;Laerm;30447;48.742;8.972;2022-08-21T00:57:38;38.39;33.90;42.71;;
45109;Laerm;30447;48.742;8.972;2022-08-21T01:00:12;38.34;35.04;42.88;;
45109;Laerm;30447;48.742;8.972;2022-08-21T01:02:39;38.75;34.69;54.10;;
45109;Laerm;30447;48.742;8.972;2022-08-21T01:05:06;38.28;34.31;45.14;;
45109;Laerm;30447;48.742;8.972;2022-08-21T01:07:33;38.47;35.04;43.63;;
45109;Laerm;30447;48.742;8.972;2022-08-21T01:10:00;38.63;34.69;58.31;;
45109;Laerm;30447;48.742;8.972;2022-08-21T01:12:27;37.95;33.44;51.19;;
45109;Laerm;30447;48.742;8.972;2022-08-21T01:14:53;39.18;33.90;46.13;;
45109;Laerm;30447;48.742;8.972;2022-08-21T01:17:21;37.87;34.31;46.05;;
45109;Laerm;30447;48.742;8.972;2022-08-21T01:19:47;38.12;32.93;40.80;;
45109;Laerm;30447;48.742;8.972;2022-08-21T01:22:14;38.01;33.90;48.96;;
45109;Laerm;30447;48.742;8.972;2022-08-21T01:24:40;37.61;33.90;40.33;;
45109;Laerm;30447;48.742;8.972;2022-08-21T01:27:07;38.30;34.69;41.22;;
45109;Laerm;30447;48.742;8.972;2022-08-21T01:29:51;38.35;34.31;42.71;;
45109;Laerm;30447;48.742;8.972;2022-08-21T01:32:20;37.68;33.90;40.53;;
45109;Laerm;30447;48.742;8.972;2022-08-21T01:34:48;38.06;34.31;41.61;;
45109;Laerm;30447;48.742;8.972;2022-08-21T01:37:17;38.32;33.90;44.90;;
45109;Laerm;30447;48.742;8.972;2022-08-21T01:39:44;37.61;32.93;41.75;;
45109;Laerm;30447;48.742;8.972;2022-08-21T01:42:12;37.60;33.44;40.53;;
45109;Laerm;30447;48.742;8.972;2022-08-21T01:44:40;37.97;32.93;51.78;;
45109;Laerm;30447;48.742;8.972;2022-08-21T01:47:10;39.94;34.69;52.54;;
45109;Laerm;30447;48.742;8.972;2022-08-21T01:49:38;39.26;34.69;48.12;;
45109;Laerm;30447;48.742;8.972;2022-08-21T01:52:06;38.11;33.90;41.55;;
45109;Laerm;30447;48.742;8.972;2022-08-21T01:54:33;38.57;33.90;42.53;;
45109;Laerm;30447;48.742;8.972;2022-08-21T01:57:00;39.80;35.36;45.83;;
45109;Laerm;30447;48.742;8.972;2022-08-21T01:59:27;39.96;35.86;45.04;;
45109;Laerm;30447;48.742;8.972;2022-08-21T02:01:53;38.39;33.44;42.16;;
45109;Laerm;30447;48.742;8.972;2022-08-21T02:04:20;37.84;33.90;40.62;;
45109;Laerm;30447;48.742;8.972;2022-08-21T02:06:47;37.59;33.90;40.23;;
45109;Laerm;30447;48.742;8.972;2022-08-21T02:09:14;38.03;32.93;42.59;;
45109;Laerm;30447;48.742;8.972;2022-08-21T02:11:41;38.21;33.44;44.07;;
45109;Laerm;30447;48.742;8.972;2022-08-21T02:14:13;37.98;33.90;40.98;;
45109;Laerm;30447;48.742;8.972;2022-08-21T02:16:42;38.40;33.90;44.11;;
45109;Laerm;30447;48.742;8.972;2022-08-21T02:19:10;38.12;33.90;42.09;;
45109;Laerm;30447;48.742;8.972;2022-08-21T02:21:38;37.70;33.44;40.18;;
45109;Laerm;30447;48.742;8.972;2022-08-21T02:24:05;37.91;34.31;40.43;;
45109;Laerm;30447;48.742;8.972;2022-08-21T02:26:32;37.93;33.90;40.80;;
45109;Laerm;30447;48.742;8.972;2022-08-21T02:28:59;37.90;33.44;41.06;;
45109;Laerm;30447;48.742;8.972;2022-08-21T02:31:25;37.79;33.44;42.35;;
45109;Laerm;30447;48.742;8.972;2022-08-21T02:33:52;38.32;33.90;44.43;;
45109;Laerm;30447;48.742;8.972;2022-08-21T02:36:18;37.93;33.90;42.41;;
45109;Laerm;30447;48.742;8.972;2022-08-21T02:38:45;37.73;33.90;40.23;;
45109;Laerm;30447;48.742;8.972;2022-08-21T02:41:14;37.96;33.90;42.41;;
45109;Laerm;30447;48.742;8.972;2022-08-21T02:43:42;37.54;33.44;41.03;;
45109;Laerm;30447;48.742;8.972;2022-08-21T02:46:11;38.78;33.55;46.93;;
45109;Laerm;30447;48.742;8.972;2022-08-21T02:48:39;40.05;34.31;48.74;;
45109;Laerm;30447;48.742;8.972;2022-08-21T02:51:13;37.82;34.31;40.62;;
45109;Laerm;30447;48.742;8.972;2022-08-21T02:53:41;37.90;34.31;48.07;;
45109;Laerm;30447;48.742;8.972;2022-08-21T02:56:10;38.02;33.44;41.22;;
45109;Laerm;30447;48.742;8.972;2022-08-21T02:58:40;38.01;34.69;41.89;;
45109;Laerm;30447;48.742;8.972;2022-08-21T03:01:08;38.48;33.90;43.72;;
45109;Laerm;30447;48.742;8.972;2022-08-21T03:03:38;37.58;33.44;41.82;;
45109;Laerm;30447;48.742;8.972;2022-08-21T03:06:06;37.70;33.90;42.09;;
45109;Laerm;30447;48.742;8.972;2022-08-21T03:08:34;37.84;33.90;46.02;;
45109;Laerm;30447;48.742;8.972;2022-08-21T03:11:01;38.37;34.31;43.77;;
45109;Laerm;30447;48.742;8.972;2022-08-21T03:13:28;39.92;35.66;44.62;;
45109;Laerm;30447;48.742;8.972;2022-08-21T03:15:56;39.07;35.04;43.99;;
45109;Laerm;30447;48.742;8.972;2022-08-21T03:18:22;37.76;33.44;45.73;;
45109;Laerm;30447;48.742;8.972;2022-08-21T03:20:49;38.30;34.31;41.14;;
45109;Laerm;30447;48.742;8.972;2022-08-21T03:23:17;38.80;35.36;43.58;;
45109;Laerm;30447;48.742;8.972;2022-08-21T03:25:46;39.56;34.69;43.90;;
45109;Laerm;30447;48.742;8.972;2022-08-21T03:28:18;38.33;33.90;42.76;;
45109;Laerm;30447;48.742;8.972;2022-08-21T03:30:46;39.94;34.69;45.48;;
45109;Laerm;30447;48.742;8.972;2022-08-21T03:33:13;39.13;33.90;48.39;;
45109;Laerm;30447;48.742;8.972;2022-08-21T03:35:45;38.10;33.44;40.71;;
45109;Laerm;30447;48.742;8.972;2022-08-21T03:38:12;38.26;34.31;52.41;;
45109;Laerm;30447;48.742;8.972;2022-08-21T03:40:40;39.37;35.04;43.58;;
45109;Laerm;30447;48.742;8.972;2022-08-21T03:43:06;38.30;34.69;41.89;;
45109;Laerm;30447;48.742;8.972;2022-08-21T03:45:35;38.52;34.31;42.71;;
45109;Laerm;30447;48.742;8.972;2022-08-21T03:48:04;41.02;34.69;56.03;;
45109;Laerm;30447;48.742;8.972;2022-08-21T03:50:34;39.90;35.04;45.63;;
45109;Laerm;30447;48.742;8.972;2022-08-21T03:53:01;38.94;35.04;47.06;;
45109;Laerm;30447;48.742;8.972;2022-08-21T03:55:28;39.01;35.04;42.98;;
45109;Laerm;30447;48.742;8.972;2022-08-21T03:57:55;38.60;35.04;47.54;;
45109;Laerm;30447;48.742;8.972;2022-08-21T04:00:23;38.87;35.66;41.75;;
45109;Laerm;30447;48.742;8.972;2022-08-21T04:02:50;39.37;36.20;43.72;;
45109;Laerm;30447;48.742;8.972;2022-08-21T04:05:18;38.82;35.04;44.23;;
45109;Laerm;30447;48.742;8.972;2022-08-21T04:07:55;39.29;34.69;52.83;;
45109;Laerm;30447;48.742;8.972;2022-08-21T04:10:22;39.01;34.31;48.91;;
45109;Laerm;30447;48.742;8.972;2022-08-21T04:12:50;39.82;35.66;48.98;;
45109;Laerm;30447;48.742;8.972;2022-08-21T04:15:17;40.25;35.01;48.00;;
45109;Laerm;30447;48.742;8.972;2022-08-21T04:17:44;40.01;35.36;49.77;;
45109;Laerm;30447;48.742;8.972;2022-08-21T04:20:10;39.24;35.36;45.14;;
45109;Laerm;30447;48.742;8.972;2022-08-21T04:22:37;39.49;34.69;49.77;;
45109;Laerm;30447;48.742;8.972;2022-08-21T04:25:03;39.50;35.36;43.04;;
45109;Laerm;30447;48.742;8.972;2022-08-21T04:27:30;38.81;35.36;41.61;;
45109;Laerm;30447;48.742;8.972;2022-08-21T04:29:56;39.13;34.69;48.77;;
45109;Laerm;30447;48.742;8.972;2022-08-21T04:32:26;39.57;35.04;48.31;;
45109;Laerm;30447;48.742;8.972;2022-08-21T04:34:59;39.05;35.31;44.54;;
45109;Laerm;30447;48.742;8.972;2022-08-21T04:37:26;39.13;35.36;43.29;;
45109;Laerm;30447;48.742;8.972;2022-08-21T04:39:53;39.04;35.36;49.88;;
45109;Laerm;30447;48.742;8.972;2022-08-21T04:42:22;38.93;35.04;42.82;;
45109;Laerm;30447;48.742;8.972;2022-08-21T04:44:48;38.70;35.04;45.07;;
45109;Laerm;30447;48.742;8.972;2022-08-21T04:47:16;40.61;35.04;49.77;;
45109;Laerm;30447;48.742;8.972;2022-08-21T04:49:43;39.50;35.94;49.34;;
45109;Laerm;30447;48.742;8.972;2022-08-21T04:52:13;38.21;34.69;43.39;;
45109;Laerm;30447;48.742;8.972;2022-08-21T04:54:44;38.54;33.44;44.11;;
45109;Laerm;30447;48.742;8.972;2022-08-21T04:57:14;38.69;34.31;58.85;;
45109;Laerm;30447;48.742;8.972;2022-08-21T04:59:48;38.80;34.69;48.87;;
45109;Laerm;30447;48.742;8.972;2022-08-21T05:02:15;40.37;33.90;57.52;;
45109;Laerm;30447;48.742;8.972;2022-08-21T05:04:47;43.13;34.69;60.08;;
45109;Laerm;30447;48.742;8.972;2022-08-21T05:07:27;39.88;34.69;55.27;;
45109;Laerm;30447;48.742;8.972;2022-08-21T05:09:54;39.46;35.04;53.01;;
45109;Laerm;30447;48.742;8.972;2022-08-21T05:12:21;38.70;35.04;49.39;;
45109;Laerm;30447;48.742;8.972;2022-08-21T05:14:48;39.94;35.66;47.06;;
45109;Laerm;30447;48.742;8.972;2022-08-21T05:17:14;42.64;35.66;48.31;;
45109;Laerm;30447;48.742;8.972;2022-08-21T05:19:41;40.48;35.94;46.69;;
45109;Laerm;30447;48.742;8.972;2022-08-21T05:22:07;39.74;35.59;55.44;;
45109;Laerm;30447;48.742;8.972;2022-08-21T05:24:35;39.83;36.20;47.26;;
45109;Laerm;30447;48.742;8.972;2022-08-21T05:27:01;40.07;36.45;52.23;;
45109;Laerm;30447;48.742;8.972;2022-08-21T05:29:28;39.97;35.94;50.58;;
45109;Laerm;30447;48.742;8.972;2022-08-21T05:31:57;39.50;35.94;44.76;;
45109;Laerm;30447;48.742;8.972;2022-08-21T05:34:24;40.17;36.91;49.20;;
45109;Laerm;30447;48.742;8.972;2022-08-21T05:36:50;39.96;36.69;47.16;;
45109;Laerm;30447;48.742;8.972;2022-08-21T05:39:17;40.09;36.91;44.97;;
45109;Laerm;30447;48.742;8.972;2022-08-21T05:41:43;39.99;35.94;44.27;;
45109;Laerm;30447;48.742;8.972;2022-08-21T05:44:10;40.39;35.94;54.53;;
45109;Laerm;30447;48.742;8.972;2022-08-21T05:46:37;40.28;36.20;47.96;;
45109;Laerm;30447;48.742;8.972;2022-08-21T05:49:04;39.96;36.20;45.89;;
45109;Laerm;30447;48.742;8.972;2022-08-21T05:51:30;40.05;36.45;50.05;;
45109;Laerm;30447;48.742;8.972;2022-08-21T05:53:57;40.94;36.45;47.32;;
45109;Laerm;30447;48.742;8.972;2022-08-21T05:56:23;42.99;37.32;49.79;;
45109;Laerm;30447;48.742;8.972;2022-08-21T05:58:50;39.64;35.04;53.25;;
45109;Laerm;30447;48.742;8.972;2022-08-21T06:01:16;39.56;35.66;47.32;;
45109;Laerm;30447;48.742;8.972;2022-08-21T06:03:43;41.31;36.69;64.25;;
45109;Laerm;30447;48.742;8.972;2022-08-21T06:06:09;39.08;35.36;48.85;;
45109;Laerm;30447;48.742;8.972;2022-08-21T06:08:36;38.85;35.04;49.85;;
45109;Laerm;30447;48.742;8.972;2022-08-21T06:11:05;39.14;35.94;46.25;;
45109;Laerm;30447;48.742;8.972;2022-08-21T06:13:32;39.58;35.36;49.51;;
45109;Laerm;30447;48.742;8.972;2022-08-21T06:16:08;40.14;36.45;50.67;;
45109;Laerm;30447;48.742;8.972;2022-08-21T06:18:37;40.67;34.69;50.57;;
45109;Laerm;30447;48.742;8.972;2022-08-21T06:21:04;39.42;35.66;51.95;;
45109;Laerm;30447;48.742;8.972;2022-08-21T06:23:33;39.55;35.04;49.57;;
45109;Laerm;30447;48.742;8.972;2022-08-21T06:26:01;38.87;35.36;45.94;;
45109;Laerm;30447;48.742;8.972;2022-08-21T06:28:27;40.76;36.20;57.60;;
45109;Laerm;30447;48.742;8.972;2022-08-21T06:30:54;40.01;36.20;53.06;;
45109;Laerm;30447;48.742;8.972;2022-08-21T06:33:20;39.62;35.66;45.01;;
45109;Laerm;30447;48.742;8.972;2022-08-21T06:35:47;40.41;35.04;54.49;;
45109;Laerm;30447;48.742;8.972;2022-08-21T06:38:13;42.88;36.91;62.39;;
45109;Laerm;30447;48.742;8.972;2022-08-21T06:40:40;41.61;34.31;63.25;;
45109;Laerm;30447;48.742;8.972;2022-08-21T06:43:12;39.07;34.69;50.27;;
45109;Laerm;30447;48.742;8.972;2022-08-21T06:45:39;39.81;35.36;51.44;;
45109;Laerm;30447;48.742;8.972;2022-08-21T06:48:06;39.82;34.69;45.11;;
45109;Laerm;30447;48.742;8.972;2022-08-21T06:50:36;39.14;35.36;46.78;;
45109;Laerm;30447;48.742;8.972;2022-08-21T06:53:09;39.45;35.04;50.27;;
45109;Laerm;30447;48.742;8.972;2022-08-21T06:55:36;39.48;35.66;57.89;;
45109;Laerm;30447;48.742;8.972;2022-08-21T06:58:04;39.47;34.69;50.10;;
45109;Laerm;30447;48.742;8.972;2022-08-21T07:00:32;39.54;35.94;53.29;;
45109;Laerm;30447;48.742;8.972;2022-08-21T07:02:59;40.63;36.20;49.51;;
45109;Laerm;30447;48.742;8.972;2022-08-21T07:05:27;39.21;35.66;44.23;;
45109;Laerm;30447;48.742;8.972;2022-08-21T07:11:22;38.95;33.90;45.54;;
45109;Laerm;30447;48.742;8.972;2022-08-21T07:13:50;38.51;34.31;51.70;;
45109;Laerm;30447;48.742;8.972;2022-08-21T07:16:19;38.82;34.31;48.92;;
45109;Laerm;30447;48.742;8.972;2022-08-21T07:18:47;38.34;32.93;44.08;;
45109;Laerm;30447;48.742;8.972;2022-08-21T07:21:15;37.75;33.44;42.82;;
45109;Laerm;30447;48.742;8.972;2022-08-21T07:23:48;38.84;33.90;61.20;;
45109;Laerm;30447;48.742;8.972;2022-08-21T07:26:19;38.71;33.90;46.80;;
45109;Laerm;30447;48.742;8.972;2022-08-21T07:28:48;43.35;32.93;68.33;;
45109;Laerm;30447;48.742;8.972;2022-08-21T07:31:17;38.02;33.90;46.63;;
45109;Laerm;30447;48.742;8.972;2022-08-21T07:33:44;39.14;33.44;51.68;;
45109;Laerm;30447;48.742;8.972;2022-08-21T07:36:11;37.81;33.44;44.76;;
45109;Laerm;30447;48.742;8.972;2022-08-21T07:38:38;37.73;33.44;43.39;;
45109;Laerm;30447;48.742;8.972;2022-08-21T07:41:14;38.18;33.44;47.00;;
45109;Laerm;30447;48.742;8.972;2022-08-21T07:43:40;38.12;33.44;49.57;;
45109;Laerm;30447;48.742;8.972;2022-08-21T07:46:07;37.89;33.44;47.51;;
45109;Laerm;30447;48.742;8.972;2022-08-21T07:48:33;37.92;33.90;47.24;;
45109;Laerm;30447;48.742;8.972;2022-08-21T07:51:05;40.36;33.90;46.02;;
45109;Laerm;30447;48.742;8.972;2022-08-21T07:53:32;40.39;34.69;58.82;;
45109;Laerm;30447;48.742;8.972;2022-08-21T07:55:59;39.07;35.04;45.97;;
45109;Laerm;30447;48.742;8.972;2022-08-21T07:58:25;40.67;36.45;44.90;;
45109;Laerm;30447;48.742;8.972;2022-08-21T08:00:52;39.69;35.04;46.73;;
45109;Laerm;30447;48.742;8.972;2022-08-21T08:03:18;38.49;33.90;44.51;;
45109;Laerm;30447;48.742;8.972;2022-08-21T08:05:45;37.77;32.93;45.89;;
45109;Laerm;30447;48.742;8.972;2022-08-21T08:08:11;38.03;33.44;45.42;;
45109;Laerm;30447;48.742;8.972;2022-08-21T08:10:38;40.44;33.44;49.60;;
45109;Laerm;30447;48.742;8.972;2022-08-21T08:13:05;38.49;34.31;46.05;;
45109;Laerm;30447;48.742;8.972;2022-08-21T08:15:32;38.10;34.69;46.55;;
45109;Laerm;30447;48.742;8.972;2022-08-21T08:17:58;38.09;33.90;47.09;;
45109;Laerm;30447;48.742;8.972;2022-08-21T08:20:25;38.05;34.31;43.54;;
45109;Laerm;30447;48.742;8.972;2022-08-21T08:22:53;39.26;34.31;42.71;;
45109;Laerm;30447;48.742;8.972;2022-08-21T08:25:21;39.13;34.31;48.07;;
45109;Laerm;30447;48.742;8.972;2022-08-21T08:27:49;39.64;34.69;53.14;;
45109;Laerm;30447;48.742;8.972;2022-08-21T08:30:17;41.37;34.31;52.52;;
45109;Laerm;30447;48.742;8.972;2022-08-21T08:32:45;39.64;34.31;51.00;;
45109;Laerm;30447;48.742;8.972;2022-08-21T08:35:13;39.48;34.69;46.05;;
45109;Laerm;30447;48.742;8.972;2022-08-21T08:37:41;38.91;34.69;45.57;;
45109;Laerm;30447;48.742;8.972;2022-08-21T08:40:25;39.76;34.69;48.63;;
45109;Laerm;30447;48.742;8.972;2022-08-21T08:42:55;39.63;33.90;58.05;;
45109;Laerm;30447;48.742;8.972;2022-08-21T08:45:22;39.91;35.04;50.85;;
45109;Laerm;30447;48.742;8.972;2022-08-21T08:47:56;40.85;35.94;52.02;;
45109;Laerm;30447;48.742;8.972;2022-08-21T08:50:41;39.44;34.69;52.70;;
45109;Laerm;30447;48.742;8.972;2022-08-21T08:55:53;38.42;33.90;46.45;;
45109;Laerm;30447;48.742;8.972;2022-08-21T08:58:31;38.89;34.69;47.50;;
45109;Laerm;30447;48.742;8.972;2022-08-21T09:00:59;37.92;32.93;52.02;;
45109;Laerm;30447;48.742;8.972;2022-08-21T09:03:27;38.34;33.44;48.28;;
45109;Laerm;30447;48.742;8.972;2022-08-21T09:05:55;38.72;32.35;49.35;;
45109;Laerm;30447;48.742;8.972;2022-08-21T09:09:02;40.41;33.44;47.34;;
45109;Laerm;30447;48.742;8.972;2022-08-21T09:12:29;37.79;33.44;52.35;;
45109;Laerm;30447;48.742;8.972;2022-08-21T09:20:38;38.61;33.90;47.10;;
45109;Laerm;30447;48.742;8.972;2022-08-21T09:23:17;38.38;33.44;49.72;;
45109;Laerm;30447;48.742;8.972;2022-08-21T09:26:07;37.75;32.93;49.33;;
45109;Laerm;30447;48.742;8.972;2022-08-21T09:28:35;37.99;32.93;47.18;;
45109;Laerm;30447;48.742;8.972;2022-08-21T09:31:07;37.96;32.93;45.23;;
45109;Laerm;30447;48.742;8.972;2022-08-21T09:33:34;37.74;32.35;44.94;;
45109;Laerm;30447;48.742;8.972;2022-08-21T09:36:01;37.41;33.44;46.13;;
45109;Laerm;30447;48.742;8.972;2022-08-21T09:38:33;40.40;34.31;45.60;;
45109;Laerm;30447;48.742;8.972;2022-08-21T09:41:06;37.79;32.93;45.11;;
45109;Laerm;30447;48.742;8.972;2022-08-21T09:43:34;38.04;32.35;52.18;;
45109;Laerm;30447;48.742;8.972;2022-08-21T09:46:20;38.18;33.90;48.66;;
45109;Laerm;30447;48.742;8.972;2022-08-21T09:48:50;40.18;34.31;50.73;;
45109;Laerm;30447;48.742;8.972;2022-08-21T09:51:20;39.02;35.66;47.98;;
45109;Laerm;30447;48.742;8.972;2022-08-21T09:54:00;38.11;32.93;50.38;;
45109;Laerm;30447;48.742;8.972;2022-08-21T09:56:59;38.16;33.44;51.02;;
45109;Laerm;30447;48.742;8.972;2022-08-21T09:59:46;38.09;33.90;57.04;;
45109;Laerm;30447;48.742;8.972;2022-08-21T10:02:29;38.63;33.90;58.15;;
45109;Laerm;30447;48.742;8.972;2022-08-21T10:07:29;39.05;33.44;60.46;;
45109;Laerm;30447;48.742;8.972;2022-08-21T10:10:07;37.98;32.93;51.13;;
45109;Laerm;30447;48.742;8.972;2022-08-21T10:15:27;40.29;32.35;54.02;;
45109;Laerm;30447;48.742;8.972;2022-08-21T10:18:24;37.88;34.31;48.83;;
45109;Laerm;30447;48.742;8.972;2022-08-21T10:26:35;38.04;32.93;45.20;;
45109;Laerm;30447;48.742;8.972;2022-08-21T10:35:34;38.88;33.90;51.89;;
45109;Laerm;30447;48.742;8.972;2022-08-21T10:41:20;38.19;33.90;46.35;;
45109;Laerm;30447;48.742;8.972;2022-08-21T10:44:04;37.94;32.35;49.80;;
45109;Laerm;30447;48.742;8.972;2022-08-21T10:47:05;38.52;33.90;53.16;;
45109;Laerm;30447;48.742;8.972;2022-08-21T10:52:33;37.54;32.93;45.86;;
45109;Laerm;30447;48.742;8.972;2022-08-21T10:55:15;37.59;32.35;44.23;;
45109;Laerm;30447;48.742;8.972;2022-08-21T10:58:05;38.48;34.31;55.84;;
45109;Laerm;30447;48.742;8.972;2022-08-21T11:00:43;38.15;33.90;43.72;;
45109;Laerm;30447;48.742;8.972;2022-08-21T11:03:24;38.67;33.90;57.53;;
45109;Laerm;30447;48.742;8.972;2022-08-21T11:06:02;38.24;34.31;48.37;;
45109;Laerm;30447;48.742;8.972;2022-08-21T11:08:39;38.36;33.90;55.78;;
45109;Laerm;30447;48.742;8.972;2022-08-21T11:11:24;37.97;33.90;52.47;;
45109;Laerm;30447;48.742;8.972;2022-08-21T11:13:57;38.17;33.90;52.64;;
45109;Laerm;30447;48.742;8.972;2022-08-21T11:16:45;39.95;35.04;53.34;;
45109;Laerm;30447;48.742;8.972;2022-08-21T11:19:29;38.14;34.31;51.95;;
45109;Laerm;30447;48.742;8.972;2022-08-21T11:24:50;38.93;34.31;56.08;;
45109;Laerm;30447;48.742;8.972;2022-08-21T11:27:28;41.07;35.04;51.13;;
45109;Laerm;30447;48.742;8.972;2022-08-21T11:30:00;38.21;34.31;43.68;;
45109;Laerm;30447;48.742;8.972;2022-08-21T11:41:13;38.09;32.35;46.73;;
45109;Laerm;30447;48.742;8.972;2022-08-21T11:43:50;40.58;34.31;60.68;;
45109;Laerm;30447;48.742;8.972;2022-08-21T11:46:43;38.95;35.04;48.26;;
45109;Laerm;30447;48.742;8.972;2022-08-21T11:54:48;38.22;33.44;42.65;;
45109;Laerm;30447;48.742;8.972;2022-08-21T11:57:23;37.70;33.90;40.98;;
45109;Laerm;30447;48.742;8.972;2022-08-21T12:00:03;37.88;32.93;48.08;;
45109;Laerm;30447;48.742;8.972;2022-08-21T12:02:38;37.54;33.90;41.14;;
45109;Laerm;30447;48.742;8.972;2022-08-21T12:05:10;40.49;32.35;54.99;;
45109;Laerm;30447;48.742;8.972;2022-08-21T12:07:47;37.67;33.44;45.89;;
45109;Laerm;30447;48.742;8.972;2022-08-21T12:10:17;38.38;32.93;43.09;;
45109;Laerm;30447;48.742;8.972;2022-08-21T12:12:47;37.69;33.44;42.65;;
45109;Laerm;30447;48.742;8.972;2022-08-21T12:17:57;38.33;33.44;46.57;;
45109;Laerm;30447;48.742;8.972;2022-08-21T12:20:43;47.34;33.44;64.86;;
45109;Laerm;30447;48.742;8.972;2022-08-21T12:25:47;37.63;32.93;45.86;;
45109;Laerm;30447;48.742;8.972;2022-08-21T12:28:27;37.62;32.93;43.94;;
45109;Laerm;30447;48.742;8.972;2022-08-21T12:30:57;38.14;33.90;44.07;;
45109;Laerm;30447;48.742;8.972;2022-08-21T12:33:33;37.63;33.90;45.60;;
45109;Laerm;30447;48.742;8.972;2022-08-21T12:36:14;37.39;32.35;40.36;;
45109;Laerm;30447;48.742;8.972;2022-08-21T12:38:59;37.69;33.90;44.94;;
45109;Laerm;30447;48.742;8.972;2022-08-21T12:41:36;37.86;33.44;51.62;;
45109;Laerm;30447;48.742;8.972;2022-08-21T12:44:15;38.47;33.90;48.95;;
45109;Laerm;30447;48.742;8.972;2022-08-21T12:46:55;38.48;33.44;45.86;;
45109;Laerm;30447;48.742;8.972;2022-08-21T12:49:36;37.86;32.93;46.71;;
45109;Laerm;30447;48.742;8.972;2022-08-21T12:52:21;37.54;33.44;41.89;;
45109;Laerm;30447;48.742;8.972;2022-08-21T12:54:48;38.21;33.44;52.63;;
45109;Laerm;30447;48.742;8.972;2022-08-21T12:57:24;38.45;33.90;49.15;;
45109;Laerm;30447;48.742;8.972;2022-08-21T12:59:59;39.99;34.31;50.48;;
45109;Laerm;30447;48.742;8.972;2022-08-21T13:02:33;39.24;33.44;51.37;;
45109;Laerm;30447;48.742;8.972;2022-08-21T13:05:05;40.28;33.90;53.61;;
45109;Laerm;30447;48.742;8.972;2022-08-21T13:07:35;38.50;34.31;45.97;;
45109;Laerm;30447;48.742;8.972;2022-08-21T13:10:18;38.72;33.44;48.15;;
45109;Laerm;30447;48.742;8.972;2022-08-21T13:12:47;38.68;34.31;47.93;;
45109;Laerm;30447;48.742;8.972;2022-08-21T13:15:21;38.81;34.69;49.78;;
45109;Laerm;30447;48.742;8.972;2022-08-21T13:17:50;38.61;34.31;45.23;;
45109;Laerm;30447;48.742;8.972;2022-08-21T13:20:22;38.49;33.90;45.42;;
45109;Laerm;30447;48.742;8.972;2022-08-21T13:22:49;38.67;33.90;50.33;;
45109;Laerm;30447;48.742;8.972;2022-08-21T13:25:19;38.61;33.44;48.34;;
45109;Laerm;30447;48.742;8.972;2022-08-21T13:28:07;38.85;32.93;50.33;;
45109;Laerm;30447;48.742;8.972;2022-08-21T13:30:33;38.47;33.44;45.27;;
45109;Laerm;30447;48.742;8.972;2022-08-21T13:33:04;39.58;34.69;49.43;;
45109;Laerm;30447;48.742;8.972;2022-08-21T13:35:50;39.20;33.90;46.89;;
45109;Laerm;30447;48.742;8.972;2022-08-21T13:38:25;39.43;33.44;46.35;;
45109;Laerm;30447;48.742;8.972;2022-08-21T13:41:04;38.67;34.31;56.13;;
45109;Laerm;30447;48.742;8.972;2022-08-21T13:43:34;38.84;34.31;47.65;;
45109;Laerm;30447;48.742;8.972;2022-08-21T13:46:07;39.21;32.93;45.63;;
45109;Laerm;30447;48.742;8.972;2022-08-21T13:48:37;39.29;34.69;48.00;;
45109;Laerm;30447;48.742;8.972;2022-08-21T13:51:04;38.44;33.90;45.78;;
45109;Laerm;30447;48.742;8.972;2022-08-21T13:53:35;38.48;32.93;46.57;;
45109;Laerm;30447;48.742;8.972;2022-08-21T13:56:03;38.70;33.90;49.11;;
45109;Laerm;30447;48.742;8.972;2022-08-21T13:58:41;39.55;32.93;57.43;;
45109;Laerm;30447;48.742;8.972;2022-08-21T14:03:49;38.86;32.93;49.65;;
45109;Laerm;30447;48.742;8.972;2022-08-21T14:06:21;41.02;34.31;51.53;;
45109;Laerm;30447;48.742;8.972;2022-08-21T14:09:00;41.39;32.93;55.21;;
45109;Laerm;30447;48.742;8.972;2022-08-21T14:11:33;39.12;33.44;48.00;;
45109;Laerm;30447;48.742;8.972;2022-08-21T14:17:01;39.31;33.44;51.10;;
45109;Laerm;30447;48.742;8.972;2022-08-21T14:19:38;37.95;32.58;47.67;;
45109;Laerm;30447;48.742;8.972;2022-08-21T14:22:27;41.46;33.90;57.05;;
45109;Laerm;30447;48.742;8.972;2022-08-21T14:30:35;38.40;33.44;47.86;;
45109;Laerm;30447;48.742;8.972;2022-08-21T14:33:07;38.51;32.93;44.07;;
45109;Laerm;30447;48.742;8.972;2022-08-21T14:35:35;38.32;33.44;51.72;;
45109;Laerm;30447;48.742;8.972;2022-08-21T14:38:01;40.19;32.93;46.95;;
45109;Laerm;30447;48.742;8.972;2022-08-21T14:40:28;37.80;33.90;44.90;;
45109;Laerm;30447;48.742;8.972;2022-08-21T14:42:55;38.72;34.31;44.35;;
45109;Laerm;30447;48.742;8.972;2022-08-21T14:45:28;38.29;33.90;53.33;;
45109;Laerm;30447;48.742;8.972;2022-08-21T14:47:56;40.06;33.44;61.23;;
45109;Laerm;30447;48.742;8.972;2022-08-21T14:50:23;37.79;33.44;47.79;;
45109;Laerm;30447;48.742;8.972;2022-08-21T14:52:50;37.65;32.93;42.98;;
45109;Laerm;30447;48.742;8.972;2022-08-21T14:55:17;38.08;32.93;55.89;;
45109;Laerm;30447;48.742;8.972;2022-08-21T14:57:47;37.82;33.90;43.68;;
45109;Laerm;30447;48.742;8.972;2022-08-21T15:00:18;38.12;32.93;45.39;;
45109;Laerm;30447;48.742;8.972;2022-08-21T15:02:46;38.73;34.31;50.20;;
45109;Laerm;30447;48.742;8.972;2022-08-21T15:05:13;38.39;32.93;45.75;;
45109;Laerm;30447;48.742;8.972;2022-08-21T15:07:39;44.98;36.69;60.07;;
45109;Laerm;30447;48.742;8.972;2022-08-21T15:10:08;42.11;33.90;55.35;;
45109;Laerm;30447;48.742;8.972;2022-08-21T15:12:35;39.08;32.93;47.16;;